Terminal Aerodrome Forecast
Issued by NWS

Home | Current Version | Previous Version | Text Only | Print | Product List | Glossary On
Versions: 1 2 3 4 5 6 7 8 9 10 11 12 13 14 15 16 17 18 19
000
FTUS44 KHGX 271427 AAB
TAFCXO
TAF AMD
KCXO 271427Z 2714/2812 12004KT 4SM BR BKN005 OVC070
     FM271600 17009KT P6SM BKN035
     FM280300 15007KT P6SM BKN025
     FM280900 16006KT 6SM BR SCT009 BKN020=

USA.gov is the U.S. government's official web portal to all federal, state and local government web resources and services.